createdAt,value
2022-12-03T00:01:49.287Z,17.80
2022-12-03T00:04:51.861Z,17.27
2022-12-03T00:07:54.399Z,17.95
2022-12-03T00:10:56.679Z,18.10
2022-12-03T00:13:58.979Z,16.98
2022-12-03T00:17:01.200Z,17.33
2022-12-03T00:20:05.206Z,17.33
2022-12-03T00:23:07.465Z,16.65
2022-12-03T00:26:09.793Z,16.85
2022-12-03T00:29:12.035Z,17.30
2022-12-03T00:32:14.299Z,16.90
2022-12-03T00:35:16.696Z,15.83
2022-12-03T00:38:18.970Z,15.93
2022-12-03T00:41:21.628Z,16.83
2022-12-03T00:44:23.907Z,18.30
2022-12-03T00:47:26.174Z,14.77
2022-12-03T00:50:28.577Z,15.30
2022-12-03T00:53:30.837Z,16.85
2022-12-03T00:56:33.124Z,17.45
2022-12-03T00:59:35.402Z,15.25
2022-12-03T01:02:37.690Z,16.58
2022-12-03T01:05:39.980Z,15.67
2022-12-03T01:08:42.232Z,16.38
2022-12-03T01:11:44.536Z,16.08
2022-12-03T01:14:46.929Z,16.40
2022-12-03T01:17:49.143Z,16.67
2022-12-03T01:20:51.404Z,16.70
2022-12-03T01:23:53.720Z,15.52
2022-12-03T01:26:56.768Z,15.38
2022-12-03T01:29:59.027Z,15.70
2022-12-03T01:33:01.296Z,16.27
2022-12-03T01:36:03.726Z,15.13
2022-12-03T01:39:06.059Z,16.30
2022-12-03T01:42:12.124Z,17.10
2022-12-03T01:45:22.373Z,16.92
2022-12-03T01:48:24.695Z,16.05
2022-12-03T01:51:27.004Z,14.80
2022-12-03T01:54:37.343Z,14.85
2022-12-03T01:57:40.485Z,16.05
2022-12-03T02:00:42.767Z,16.17
2022-12-03T02:03:46.107Z,15.93
2022-12-03T02:06:48.527Z,15.67
2022-12-03T02:09:51.209Z,16.48
2022-12-03T02:13:00.038Z,15.65
2022-12-03T02:16:03.475Z,15.50
2022-12-03T02:19:10.530Z,15.48
2022-12-03T02:22:39.257Z,15.97
2022-12-03T02:25:41.707Z,15.93
2022-12-03T02:28:44.082Z,15.75
2022-12-03T02:31:46.649Z,15.68
2022-12-03T02:34:49.877Z,15.50
2022-12-03T02:37:56.273Z,15.70
2022-12-03T02:41:04.056Z,15.23
2022-12-03T02:44:07.275Z,15.27
2022-12-03T02:47:09.726Z,16.20
2022-12-03T02:50:14.706Z,17.00
2022-12-03T02:53:20.136Z,15.63
2022-12-03T02:56:24.852Z,16.38
2022-12-03T02:59:27.200Z,16.50
2022-12-03T03:02:29.698Z,15.70
2022-12-03T03:05:33.145Z,16.50
2022-12-03T03:08:37.341Z,15.83
2022-12-03T03:11:39.767Z,16.40
2022-12-03T03:14:41.991Z,16.13
2022-12-03T03:17:44.386Z,16.50
2022-12-03T03:20:46.644Z,17.30
2022-12-03T03:23:49.394Z,16.70
2022-12-03T03:26:51.655Z,15.45
2022-12-03T03:29:54.151Z,17.48
2022-12-03T03:32:56.586Z,16.63
2022-12-03T03:36:00.544Z,16.73
2022-12-03T03:39:04.261Z,17.70
2022-12-03T03:42:06.634Z,16.67
2022-12-03T03:45:09.679Z,16.48
2022-12-03T03:48:12.908Z,17.30
2022-12-03T03:51:16.855Z,16.80
2022-12-03T03:54:19.200Z,16.80
2022-12-03T03:57:22.366Z,17.38
2022-12-03T04:00:24.820Z,16.92
2022-12-03T04:03:28.194Z,16.15
2022-12-03T04:06:30.559Z,16.73
2022-12-03T04:09:32.799Z,16.27
2022-12-03T04:12:53.551Z,17.40
2022-12-03T04:15:55.795Z,17.00
2022-12-03T04:18:58.100Z,16.23
2022-12-03T04:22:19.127Z,17.00
2022-12-03T04:25:40.007Z,16.30
2022-12-03T04:28:51.344Z,17.85
2022-12-03T04:32:12.236Z,18.10
2022-12-03T04:35:40.759Z,16.98
2022-12-03T04:38:44.485Z,16.60
2022-12-03T04:41:46.992Z,17.60
2022-12-03T04:44:50.157Z,17.95
2022-12-03T04:47:52.466Z,17.23
2022-12-03T04:50:54.689Z,17.38
2022-12-03T04:53:57.041Z,17.92
2022-12-03T04:56:59.347Z,17.67
2022-12-03T05:00:01.848Z,17.40
2022-12-03T05:03:04.235Z,18.88
2022-12-03T05:06:06.937Z,17.10
2022-12-03T05:09:09.818Z,16.65
2022-12-03T05:12:12.093Z,17.23
2022-12-03T05:15:14.355Z,16.77
2022-12-03T05:18:16.656Z,17.23
2022-12-03T05:21:18.997Z,17.65
2022-12-03T05:24:21.332Z,18.13
2022-12-03T05:27:24.308Z,17.57
2022-12-03T05:30:26.816Z,16.42
2022-12-03T05:33:29.155Z,16.42
2022-12-03T05:36:31.395Z,17.10
2022-12-03T05:39:33.750Z,17.05
2022-12-03T05:42:54.187Z,16.90
2022-12-03T05:45:56.510Z,16.83
2022-12-03T05:49:13.870Z,17.33
2022-12-03T05:52:16.122Z,17.55
2022-12-03T05:55:19.212Z,16.15
2022-12-03T05:58:21.476Z,16.27
2022-12-03T06:01:23.716Z,17.50
2022-12-03T06:04:27.425Z,16.90
2022-12-03T06:07:29.785Z,17.23
2022-12-03T06:10:32.642Z,15.65
2022-12-03T06:13:34.898Z,16.93
2022-12-03T06:16:37.193Z,16.90
2022-12-03T06:19:39.550Z,17.25
2022-12-03T06:22:42.155Z,16.48
2022-12-03T06:25:44.454Z,16.55
2022-12-03T06:28:49.165Z,16.40
2022-12-03T06:31:51.447Z,16.63
2022-12-03T06:34:53.863Z,17.70
2022-12-03T06:37:56.340Z,17.55
2022-12-03T06:40:58.657Z,17.45
2022-12-03T06:44:00.930Z,17.10
2022-12-03T06:47:03.317Z,16.92
2022-12-03T06:50:07.251Z,17.80
2022-12-03T06:53:09.659Z,16.67
2022-12-03T06:56:11.921Z,18.23
2022-12-03T06:59:14.291Z,17.90
2022-12-03T07:02:16.672Z,17.88
2022-12-03T07:05:18.925Z,18.50
2022-12-03T07:08:21.234Z,19.23
2022-12-03T07:11:32.333Z,19.20
2022-12-03T07:14:34.601Z,19.17
2022-12-03T07:17:37.207Z,19.55
2022-12-03T07:20:39.509Z,19.08
2022-12-03T07:23:41.881Z,19.23
2022-12-03T07:26:44.337Z,18.95
2022-12-03T07:29:46.823Z,18.33
2022-12-03T07:32:49.459Z,19.48
2022-12-03T07:35:51.776Z,18.98
2022-12-03T07:38:54.108Z,19.23
2022-12-03T07:41:56.379Z,19.38
2022-12-03T07:44:58.799Z,19.43
2022-12-03T07:48:01.075Z,18.65
2022-12-03T07:51:03.561Z,18.63
2022-12-03T07:54:06.105Z,18.20
2022-12-03T07:57:08.399Z,18.00
2022-12-03T08:00:11.325Z,19.17
2022-12-03T08:03:13.629Z,18.45
2022-12-03T08:06:15.951Z,19.45
2022-12-03T08:09:18.175Z,18.88
2022-12-03T08:12:25.647Z,18.90
2022-12-03T08:15:33.830Z,17.50
2022-12-03T08:18:41.171Z,17.98
2022-12-03T08:21:44.275Z,18.83
2022-12-03T08:24:46.586Z,17.38
2022-12-03T08:27:49.294Z,18.13
2022-12-03T08:31:12.639Z,17.00
2022-12-03T08:34:44.628Z,17.10
2022-12-03T08:37:46.993Z,17.60
2022-12-03T08:40:51.553Z,16.70
2022-12-03T08:43:53.860Z,18.42
2022-12-03T08:46:59.396Z,17.77
2022-12-03T08:50:25.174Z,17.35
2022-12-03T08:53:46.183Z,17.48
2022-12-03T08:56:49.019Z,16.42
2022-12-03T09:00:19.544Z,16.75
2022-12-03T09:03:21.857Z,16.57
2022-12-03T09:06:24.236Z,15.45
2022-12-03T09:09:26.771Z,15.18
2022-12-03T09:12:29.042Z,15.38
2022-12-03T09:15:31.476Z,15.82
2022-12-03T09:18:33.884Z,15.40
2022-12-03T09:21:36.269Z,15.27
2022-12-03T09:24:38.525Z,15.45
2022-12-03T09:27:40.843Z,15.25
2022-12-03T09:30:43.105Z,15.20
2022-12-03T09:33:45.396Z,17.00
2022-12-03T09:36:47.764Z,16.27
2022-12-03T09:39:50.137Z,15.82
2022-12-03T09:42:52.442Z,15.10
2022-12-03T09:45:54.814Z,15.82
2022-12-03T09:48:57.491Z,16.60
2022-12-03T09:52:02.220Z,17.08
2022-12-03T09:55:11.531Z,15.93
2022-12-03T09:58:16.672Z,15.45
2022-12-03T10:01:19.043Z,16.10
2022-12-03T10:04:21.724Z,16.77
2022-12-03T10:07:25.224Z,15.98
2022-12-03T10:10:27.654Z,15.02
2022-12-03T10:13:31.243Z,14.85
2022-12-03T10:16:36.120Z,14.80
2022-12-03T10:19:39.687Z,14.00
2022-12-03T10:22:42.074Z,13.55
2022-12-03T10:25:55.664Z,14.20
2022-12-03T10:28:57.923Z,12.52
2022-12-03T10:32:07.736Z,13.32
2022-12-03T10:35:37.909Z,11.43
2022-12-03T10:38:40.250Z,12.40
2022-12-03T10:41:44.279Z,12.23
2022-12-03T10:44:46.708Z,10.27
2022-12-03T10:48:03.197Z,11.40
2022-12-03T10:51:21.831Z,11.53
2022-12-03T10:54:25.433Z,12.82
2022-12-03T10:57:27.719Z,12.48
2022-12-03T11:00:30.011Z,11.02
2022-12-03T11:03:36.401Z,11.90
2022-12-03T11:06:38.748Z,11.53
2022-12-03T11:09:46.642Z,11.35
2022-12-03T11:13:26.898Z,12.50
2022-12-03T11:16:41.395Z,12.13
2022-12-03T11:19:46.654Z,11.90
2022-12-03T11:22:50.521Z,12.20
2022-12-03T11:25:52.791Z,11.85
2022-12-03T11:28:56.692Z,11.75
2022-12-03T11:31:59.259Z,11.27
2022-12-03T11:35:01.667Z,13.25
2022-12-03T11:38:38.221Z,11.87
2022-12-03T11:41:40.513Z,11.10
2022-12-03T11:44:43.300Z,11.40
2022-12-03T11:48:00.907Z,11.98
2022-12-03T11:51:03.365Z,11.32
2022-12-03T11:54:05.856Z,13.00
2022-12-03T11:57:30.051Z,12.38
2022-12-03T12:00:32.540Z,11.68
2022-12-03T12:03:36.067Z,12.43
2022-12-03T12:06:43.604Z,11.80
2022-12-03T12:09:55.523Z,12.40
2022-12-03T12:12:58.103Z,11.27
2022-12-03T12:16:08.894Z,12.32
2022-12-03T12:19:33.045Z,11.98
2022-12-03T12:22:35.353Z,11.40
2022-12-03T12:25:40.887Z,11.30
2022-12-03T12:28:43.291Z,11.68
2022-12-03T12:31:49.480Z,11.90
2022-12-03T12:35:00.272Z,11.95
2022-12-03T12:38:11.667Z,11.68
2022-12-03T12:41:13.936Z,11.50
2022-12-03T12:44:16.238Z,12.85
2022-12-03T12:47:18.569Z,12.02
2022-12-03T12:50:20.902Z,12.25
2022-12-03T12:53:25.086Z,12.52
2022-12-03T12:56:32.774Z,10.50
2022-12-03T12:59:34.988Z,11.50
2022-12-03T13:02:39.539Z,12.02
2022-12-03T13:05:43.939Z,12.30
2022-12-03T13:08:49.244Z,12.75
2022-12-03T13:11:56.239Z,11.63
2022-12-03T13:14:59.550Z,11.23
2022-12-03T13:18:02.626Z,12.43
2022-12-03T13:21:40.029Z,12.05
2022-12-03T13:24:50.946Z,10.77
2022-12-03T13:27:53.190Z,12.60
2022-12-03T13:30:56.041Z,12.40
2022-12-03T13:34:00.071Z,11.50
2022-12-03T13:37:03.065Z,11.48
2022-12-03T13:40:12.741Z,12.32
2022-12-03T13:43:17.003Z,11.47
2022-12-03T13:46:19.353Z,11.18
2022-12-03T13:49:23.366Z,11.48
2022-12-03T13:52:26.236Z,10.57
2022-12-03T13:55:30.321Z,11.23
2022-12-03T13:58:32.552Z,11.70
2022-12-03T14:01:36.238Z,10.88
2022-12-03T14:04:39.404Z,11.88
2022-12-03T14:07:41.800Z,11.10
2022-12-03T14:10:44.209Z,11.48
2022-12-03T14:13:46.426Z,10.73
2022-12-03T14:16:48.871Z,11.27
2022-12-03T14:19:51.367Z,12.32
2022-12-03T14:22:59.073Z,10.80
2022-12-03T14:26:02.002Z,11.75
2022-12-03T14:29:08.536Z,12.17
2022-12-03T14:32:11.294Z,10.88
2022-12-03T14:35:13.628Z,12.75
2022-12-03T14:38:16.091Z,11.52
2022-12-03T14:41:36.914Z,12.45
2022-12-03T14:44:48.454Z,10.93
2022-12-03T14:47:50.648Z,12.13
2022-12-03T14:50:53.068Z,12.32
2022-12-03T14:53:55.385Z,12.63
2022-12-03T14:56:57.668Z,11.68
2022-12-03T15:00:00.137Z,11.03
2022-12-03T15:03:02.542Z,11.70
2022-12-03T15:06:05.236Z,11.55
2022-12-03T15:09:08.027Z,11.68
2022-12-03T15:12:10.293Z,12.07
2022-12-03T15:15:12.588Z,11.30
2022-12-03T15:18:15.000Z,11.52
2022-12-03T15:21:17.280Z,11.57
2022-12-03T15:24:19.624Z,11.75
2022-12-03T15:27:21.924Z,15.90
2022-12-03T15:30:24.209Z,15.30
2022-12-03T15:33:26.517Z,13.00
2022-12-03T15:36:28.912Z,13.77
2022-12-03T15:39:33.051Z,14.00
2022-12-03T15:42:35.536Z,15.48
2022-12-03T15:45:38.150Z,14.90
2022-12-03T15:48:40.846Z,14.07
2022-12-03T15:51:43.189Z,12.75
2022-12-03T15:54:46.166Z,12.60
2022-12-03T15:57:49.302Z,14.27
2022-12-03T16:00:51.589Z,12.43
2022-12-03T16:03:53.866Z,11.80
2022-12-03T16:06:56.532Z,13.15
2022-12-03T16:09:59.187Z,13.60
2022-12-03T16:13:01.480Z,12.25
2022-12-03T16:16:04.053Z,12.77
2022-12-03T16:19:06.322Z,14.05
2022-12-03T16:22:08.856Z,14.05
2022-12-03T16:25:11.183Z,13.82
2022-12-03T16:28:13.598Z,13.90
2022-12-03T16:31:16.133Z,14.50
2022-12-03T16:34:18.535Z,14.27
2022-12-03T16:37:20.800Z,14.50
2022-12-03T16:40:23.791Z,14.38
2022-12-03T16:43:26.064Z,14.93
2022-12-03T16:46:28.461Z,14.90
2022-12-03T16:49:30.831Z,15.20
2022-12-03T16:52:33.358Z,16.38
2022-12-03T16:55:35.619Z,16.25
2022-12-03T16:58:37.986Z,16.90
2022-12-03T17:01:40.463Z,15.63
2022-12-03T17:04:42.777Z,16.08
2022-12-03T17:07:45.070Z,15.73
2022-12-03T17:10:47.802Z,19.90
2022-12-03T17:13:50.103Z,25.25
2022-12-03T17:16:52.998Z,21.70
2022-12-03T17:19:55.520Z,20.48
2022-12-03T17:22:58.589Z,20.38
2022-12-03T17:26:00.874Z,19.05
2022-12-03T17:29:03.108Z,18.15
2022-12-03T17:32:05.957Z,18.27
2022-12-03T17:35:09.177Z,18.13
2022-12-03T17:38:11.459Z,17.02
2022-12-03T17:41:13.739Z,15.82
2022-12-03T17:44:20.760Z,17.20
2022-12-03T17:47:23.552Z,17.03
2022-12-03T17:50:25.831Z,18.35
2022-12-03T17:53:28.226Z,19.30
2022-12-03T17:56:30.537Z,18.08
2022-12-03T17:59:32.795Z,18.40
2022-12-03T18:02:35.199Z,17.80
2022-12-03T18:05:37.606Z,17.23
2022-12-03T18:08:39.929Z,17.80
2022-12-03T18:11:42.213Z,17.60
2022-12-03T18:14:44.897Z,18.95
2022-12-03T18:17:47.260Z,19.20
2022-12-03T18:20:49.556Z,18.63
2022-12-03T18:23:52.416Z,17.75
2022-12-03T18:26:54.688Z,16.58
2022-12-03T18:29:57.501Z,17.90
2022-12-03T18:32:59.886Z,17.83
2022-12-03T18:36:03.481Z,17.10
2022-12-03T18:39:09.123Z,16.48
2022-12-03T18:42:19.582Z,17.98
2022-12-03T18:45:21.846Z,17.10
2022-12-03T18:48:24.955Z,16.73
2022-12-03T18:51:29.032Z,17.38
2022-12-03T18:54:31.296Z,17.08
2022-12-03T18:57:33.549Z,16.98
2022-12-03T19:00:36.422Z,17.55
2022-12-03T19:03:38.764Z,17.70
2022-12-03T19:06:41.018Z,17.35
2022-12-03T19:09:43.402Z,17.35
2022-12-03T19:12:45.636Z,16.88
2022-12-03T19:15:49.205Z,18.15
2022-12-03T19:18:53.201Z,16.37
2022-12-03T19:21:56.139Z,16.80
2022-12-03T19:24:58.420Z,16.23
2022-12-03T19:28:00.786Z,17.02
2022-12-03T19:31:05.980Z,17.55
2022-12-03T19:34:08.343Z,16.57
2022-12-03T19:37:10.573Z,16.75
2022-12-03T19:40:13.013Z,18.38
2022-12-03T19:43:15.365Z,18.30
2022-12-03T19:46:19.442Z,19.05
2022-12-03T19:49:22.390Z,18.10
2022-12-03T19:52:24.737Z,18.30
2022-12-03T19:55:27.069Z,18.45
2022-12-03T19:58:29.940Z,16.90
2022-12-03T20:01:34.541Z,17.90
2022-12-03T20:04:37.221Z,17.80
2022-12-03T20:07:39.496Z,17.50
2022-12-03T20:10:42.030Z,17.85
2022-12-03T20:13:44.610Z,18.45
2022-12-03T20:16:47.470Z,16.92
2022-12-03T20:19:49.857Z,16.87
2022-12-03T20:22:52.085Z,18.60
2022-12-03T20:25:54.783Z,17.40
2022-12-03T20:28:58.050Z,17.05
2022-12-03T20:32:01.178Z,18.73
2022-12-03T20:35:03.935Z,17.87
2022-12-03T20:38:06.256Z,17.30
2022-12-03T20:41:11.060Z,17.35
2022-12-03T20:44:14.035Z,16.95
2022-12-03T20:47:17.353Z,17.75
2022-12-03T20:50:19.592Z,16.20
2022-12-03T20:53:25.678Z,18.30
2022-12-03T20:56:31.484Z,18.55
2022-12-03T20:59:33.890Z,18.13
2022-12-03T21:02:37.631Z,17.45
2022-12-03T21:05:40.048Z,20.00
2022-12-03T21:08:43.183Z,18.50
2022-12-03T21:11:45.626Z,18.65
2022-12-03T21:14:47.894Z,19.83
2022-12-03T21:17:50.279Z,21.10
2022-12-03T21:20:52.590Z,19.77
2022-12-03T21:23:54.896Z,18.85
2022-12-03T21:26:57.257Z,19.95
2022-12-03T21:29:59.493Z,19.67
2022-12-03T21:33:01.804Z,18.83
2022-12-03T21:36:05.559Z,18.33
2022-12-03T21:39:08.282Z,19.50
2022-12-03T21:42:34.624Z,19.48
2022-12-03T21:45:32.781Z,19.17
2022-12-03T21:48:36.091Z,18.63
2022-12-03T21:51:38.402Z,18.13
2022-12-03T21:54:40.691Z,20.52
2022-12-03T21:57:42.987Z,21.48
2022-12-03T22:00:45.258Z,19.48
2022-12-03T22:03:47.957Z,19.50
2022-12-03T22:06:50.265Z,21.03
2022-12-03T22:09:52.724Z,20.83
2022-12-03T22:12:55.273Z,19.92
2022-12-03T22:15:57.612Z,21.40
2022-12-03T22:18:59.923Z,20.80
2022-12-03T22:22:02.188Z,18.80
2022-12-03T22:25:04.838Z,19.02
2022-12-03T22:28:07.161Z,18.98
2022-12-03T22:31:10.252Z,18.63
2022-12-03T22:34:12.890Z,19.83
2022-12-03T22:37:15.219Z,17.63
2022-12-03T22:40:17.533Z,18.75
2022-12-03T22:43:20.662Z,18.48
2022-12-03T22:46:23.120Z,18.45
2022-12-03T22:49:26.005Z,18.05
2022-12-03T22:52:28.275Z,17.77
2022-12-03T22:55:30.548Z,19.52
2022-12-03T22:58:32.992Z,18.25
2022-12-03T23:01:37.360Z,18.27
2022-12-03T23:04:39.641Z,17.08
2022-12-03T23:07:42.021Z,16.57
2022-12-03T23:10:46.731Z,17.73
2022-12-03T23:13:48.984Z,17.98
2022-12-03T23:16:51.295Z,17.70
2022-12-03T23:19:53.841Z,18.55
2022-12-03T23:22:56.331Z,16.83
2022-12-03T23:26:09.718Z,17.98
2022-12-03T23:29:12.003Z,17.13
2022-12-03T23:32:14.304Z,16.42
2022-12-03T23:35:16.555Z,16.92
2022-12-03T23:38:18.799Z,17.43
2022-12-03T23:41:23.223Z,17.63
2022-12-03T23:44:27.571Z,16.88
2022-12-03T23:47:29.867Z,16.58
2022-12-03T23:50:32.241Z,18.10
2022-12-03T23:53:35.678Z,17.67
2022-12-03T23:56:39.478Z,17.48
2022-12-03T23:59:42.200Z,17.80
